sensor_id;sensor_type;location;lat;lon;timestamp;temperature;humidity
32660;DHT22;19064;47.912;12.308;2022-07-06T00:01:08;14.60;99.90
32660;DHT22;19064;47.912;12.308;2022-07-06T00:03:36;14.60;99.90
32660;DHT22;19064;47.912;12.308;2022-07-06T00:06:04;14.60;99.90
32660;DHT22;19064;47.912;12.308;2022-07-06T00:08:32;14.60;99.90
32660;DHT22;19064;47.912;12.308;2022-07-06T00:11:02;14.60;99.90
32660;DHT22;19064;47.912;12.308;2022-07-06T00:13:36;14.60;99.90
32660;DHT22;19064;47.912;12.308;2022-07-06T00:16:05;14.80;99.90
32660;DHT22;19064;47.912;12.308;2022-07-06T00:18:33;14.80;99.90
32660;DHT22;19064;47.912;12.308;2022-07-06T00:21:01;14.90;99.90
32660;DHT22;19064;47.912;12.308;2022-07-06T00:23:29;15.10;99.90
32660;DHT22;19064;47.912;12.308;2022-07-06T00:25:57;15.00;99.90
32660;DHT22;19064;47.912;12.308;2022-07-06T00:28:25;14.90;99.90
32660;DHT22;19064;47.912;12.308;2022-07-06T00:30:55;14.90;99.90
32660;DHT22;19064;47.912;12.308;2022-07-06T00:33:23;14.90;99.90
32660;DHT22;19064;47.912;12.308;2022-07-06T00:35:51;14.80;99.90
32660;DHT22;19064;47.912;12.308;2022-07-06T00:38:19;14.80;99.90
32660;DHT22;19064;47.912;12.308;2022-07-06T00:40:46;14.90;99.90
32660;DHT22;19064;47.912;12.308;2022-07-06T00:43:14;15.00;99.90
32660;DHT22;19064;47.912;12.308;2022-07-06T00:45:42;15.00;99.90
32660;DHT22;19064;47.912;12.308;2022-07-06T00:48:13;15.00;99.90
32660;DHT22;19064;47.912;12.308;2022-07-06T00:50:40;14.90;99.90
32660;DHT22;19064;47.912;12.308;2022-07-06T00:53:07;14.90;99.90
32660;DHT22;19064;47.912;12.308;2022-07-06T00:55:35;14.90;99.90
32660;DHT22;19064;47.912;12.308;2022-07-06T00:58:03;15.00;99.90
32660;DHT22;19064;47.912;12.308;2022-07-06T01:00:31;14.90;99.90
32660;DHT22;19064;47.912;12.308;2022-07-06T01:02:58;15.10;99.90
32660;DHT22;19064;47.912;12.308;2022-07-06T01:05:26;15.10;99.90
32660;DHT22;19064;47.912;12.308;2022-07-06T01:07:53;15.10;99.90
32660;DHT22;19064;47.912;12.308;2022-07-06T01:10:22;15.20;99.90
32660;DHT22;19064;47.912;12.308;2022-07-06T01:12:49;15.20;99.90
32660;DHT22;19064;47.912;12.308;2022-07-06T01:15:18;15.10;99.90
32660;DHT22;19064;47.912;12.308;2022-07-06T01:17:46;15.10;99.90
32660;DHT22;19064;47.912;12.308;2022-07-06T01:20:15;15.10;99.90
32660;DHT22;19064;47.912;12.308;2022-07-06T01:22:42;15.10;99.90
32660;DHT22;19064;47.912;12.308;2022-07-06T01:25:10;15.10;99.90
32660;DHT22;19064;47.912;12.308;2022-07-06T01:27:38;15.10;99.90
32660;DHT22;19064;47.912;12.308;2022-07-06T01:30:06;15.00;99.90
32660;DHT22;19064;47.912;12.308;2022-07-06T01:32:34;14.90;99.90
32660;DHT22;19064;47.912;12.308;2022-07-06T01:35:01;14.90;99.90
32660;DHT22;19064;47.912;12.308;2022-07-06T01:37:30;14.90;99.90
32660;DHT22;19064;47.912;12.308;2022-07-06T01:39:58;14.80;99.90
32660;DHT22;19064;47.912;12.308;2022-07-06T01:42:25;14.70;99.90
32660;DHT22;19064;47.912;12.308;2022-07-06T01:44:52;14.70;99.90
32660;DHT22;19064;47.912;12.308;2022-07-06T01:47:19;14.60;99.90
32660;DHT22;19064;47.912;12.308;2022-07-06T01:49:46;14.60;99.90
32660;DHT22;19064;47.912;12.308;2022-07-06T01:52:13;14.50;99.90
32660;DHT22;19064;47.912;12.308;2022-07-06T01:54:41;14.50;99.90
32660;DHT22;19064;47.912;12.308;2022-07-06T01:57:08;14.60;99.90
32660;DHT22;19064;47.912;12.308;2022-07-06T01:59:35;14.60;99.90
32660;DHT22;19064;47.912;12.308;2022-07-06T02:02:02;14.60;99.90
32660;DHT22;19064;47.912;12.308;2022-07-06T02:04:29;14.50;99.90
32660;DHT22;19064;47.912;12.308;2022-07-06T02:06:55;14.60;99.90
32660;DHT22;19064;47.912;12.308;2022-07-06T02:09:22;14.60;99.90
32660;DHT22;19064;47.912;12.308;2022-07-06T02:11:50;14.60;99.90
32660;DHT22;19064;47.912;12.308;2022-07-06T02:14:17;14.60;99.90
32660;DHT22;19064;47.912;12.308;2022-07-06T02:16:44;14.60;99.90
32660;DHT22;19064;47.912;12.308;2022-07-06T02:19:11;14.60;99.90
32660;DHT22;19064;47.912;12.308;2022-07-06T02:21:37;14.60;99.90
32660;DHT22;19064;47.912;12.308;2022-07-06T02:24:05;14.60;99.90
32660;DHT22;19064;47.912;12.308;2022-07-06T02:26:31;14.50;99.90
32660;DHT22;19064;47.912;12.308;2022-07-06T02:28:59;14.50;99.90
32660;DHT22;19064;47.912;12.308;2022-07-06T02:31:26;14.50;99.90
32660;DHT22;19064;47.912;12.308;2022-07-06T02:33:53;14.60;99.90
32660;DHT22;19064;47.912;12.308;2022-07-06T02:36:20;14.60;99.90
32660;DHT22;19064;47.912;12.308;2022-07-06T02:38:47;14.60;99.90
32660;DHT22;19064;47.912;12.308;2022-07-06T02:41:13;14.60;99.90
32660;DHT22;19064;47.912;12.308;2022-07-06T02:43:40;14.60;99.90
32660;DHT22;19064;47.912;12.308;2022-07-06T02:46:08;14.60;99.90
32660;DHT22;19064;47.912;12.308;2022-07-06T02:48:35;14.70;99.90
32660;DHT22;19064;47.912;12.308;2022-07-06T02:51:02;14.70;99.90
32660;DHT22;19064;47.912;12.308;2022-07-06T02:53:29;14.70;99.90
32660;DHT22;19064;47.912;12.308;2022-07-06T02:55:56;14.70;99.90
32660;DHT22;19064;47.912;12.308;2022-07-06T02:58:23;14.70;99.90
32660;DHT22;19064;47.912;12.308;2022-07-06T03:00:49;14.70;99.90
32660;DHT22;19064;47.912;12.308;2022-07-06T03:03:18;14.70;99.90
32660;DHT22;19064;47.912;12.308;2022-07-06T03:05:44;14.80;99.90
32660;DHT22;19064;47.912;12.308;2022-07-06T03:08:12;14.80;99.90
32660;DHT22;19064;47.912;12.308;2022-07-06T03:10:39;14.70;99.90
32660;DHT22;19064;47.912;12.308;2022-07-06T03:13:06;14.80;99.90
32660;DHT22;19064;47.912;12.308;2022-07-06T03:15:32;14.80;99.90
32660;DHT22;19064;47.912;12.308;2022-07-06T03:17:59;14.70;99.90
32660;DHT22;19064;47.912;12.308;2022-07-06T03:20:27;14.80;99.90
32660;DHT22;19064;47.912;12.308;2022-07-06T03:22:54;14.80;99.90
32660;DHT22;19064;47.912;12.308;2022-07-06T03:25:22;14.90;99.90
32660;DHT22;19064;47.912;12.308;2022-07-06T03:27:48;14.80;99.90
32660;DHT22;19064;47.912;12.308;2022-07-06T03:30:15;14.90;99.90
32660;DHT22;19064;47.912;12.308;2022-07-06T03:32:42;15.00;99.90
32660;DHT22;19064;47.912;12.308;2022-07-06T03:35:09;15.10;99.90
32660;DHT22;19064;47.912;12.308;2022-07-06T03:37:37;15.10;99.90
32660;DHT22;19064;47.912;12.308;2022-07-06T03:40:05;15.10;99.90
32660;DHT22;19064;47.912;12.308;2022-07-06T03:42:31;15.10;99.90
32660;DHT22;19064;47.912;12.308;2022-07-06T03:44:58;15.20;99.90
32660;DHT22;19064;47.912;12.308;2022-07-06T03:47:25;15.30;99.90
32660;DHT22;19064;47.912;12.308;2022-07-06T03:49:52;15.20;99.90
32660;DHT22;19064;47.912;12.308;2022-07-06T03:52:18;15.10;99.90
32660;DHT22;19064;47.912;12.308;2022-07-06T03:54:47;15.00;99.90
32660;DHT22;19064;47.912;12.308;2022-07-06T03:57:14;15.00;99.90
32660;DHT22;19064;47.912;12.308;2022-07-06T03:59:41;15.00;99.90
32660;DHT22;19064;47.912;12.308;2022-07-06T04:02:07;15.00;99.90
32660;DHT22;19064;47.912;12.308;2022-07-06T04:04:34;15.00;99.90
32660;DHT22;19064;47.912;12.308;2022-07-06T04:07:01;15.00;99.90
32660;DHT22;19064;47.912;12.308;2022-07-06T04:09:28;15.10;99.90
32660;DHT22;19064;47.912;12.308;2022-07-06T04:11:56;15.10;99.90
32660;DHT22;19064;47.912;12.308;2022-07-06T04:14:23;15.10;99.90
32660;DHT22;19064;47.912;12.308;2022-07-06T04:16:51;15.10;99.90
32660;DHT22;19064;47.912;12.308;2022-07-06T04:19:17;15.10;99.90
32660;DHT22;19064;47.912;12.308;2022-07-06T04:21:44;15.10;99.90
32660;DHT22;19064;47.912;12.308;2022-07-06T04:24:11;15.00;99.90
32660;DHT22;19064;47.912;12.308;2022-07-06T04:26:38;15.10;99.90
32660;DHT22;19064;47.912;12.308;2022-07-06T04:29:06;15.30;99.90
32660;DHT22;19064;47.912;12.308;2022-07-06T04:31:32;15.40;99.90
32660;DHT22;19064;47.912;12.308;2022-07-06T04:33:59;15.30;99.90
32660;DHT22;19064;47.912;12.308;2022-07-06T04:36:26;15.40;99.90
32660;DHT22;19064;47.912;12.308;2022-07-06T04:38:53;15.70;99.90
32660;DHT22;19064;47.912;12.308;2022-07-06T04:41:19;16.00;99.90
32660;DHT22;19064;47.912;12.308;2022-07-06T04:43:46;16.20;99.90
32660;DHT22;19064;47.912;12.308;2022-07-06T04:46:15;16.50;99.90
32660;DHT22;19064;47.912;12.308;2022-07-06T04:48:41;16.70;99.90
32660;DHT22;19064;47.912;12.308;2022-07-06T04:51:08;16.90;99.90
32660;DHT22;19064;47.912;12.308;2022-07-06T04:53:35;17.00;99.90
32660;DHT22;19064;47.912;12.308;2022-07-06T04:56:02;17.10;99.90
32660;DHT22;19064;47.912;12.308;2022-07-06T04:58:29;17.10;99.90
32660;DHT22;19064;47.912;12.308;2022-07-06T05:00:56;17.20;99.90
32660;DHT22;19064;47.912;12.308;2022-07-06T05:03:24;17.30;99.90
32660;DHT22;19064;47.912;12.308;2022-07-06T05:05:51;17.30;99.90
32660;DHT22;19064;47.912;12.308;2022-07-06T05:08:17;17.20;99.90
32660;DHT22;19064;47.912;12.308;2022-07-06T05:10:44;17.20;99.90
32660;DHT22;19064;47.912;12.308;2022-07-06T05:13:11;17.50;99.90
32660;DHT22;19064;47.912;12.308;2022-07-06T05:15:38;17.50;99.90
32660;DHT22;19064;47.912;12.308;2022-07-06T05:18:05;17.50;99.90
32660;DHT22;19064;47.912;12.308;2022-07-06T05:20:33;17.40;99.90
32660;DHT22;19064;47.912;12.308;2022-07-06T05:22:59;17.50;99.90
32660;DHT22;19064;47.912;12.308;2022-07-06T05:25:26;17.70;99.90
32660;DHT22;19064;47.912;12.308;2022-07-06T05:27:53;17.90;99.90
32660;DHT22;19064;47.912;12.308;2022-07-06T05:30:20;18.00;99.90
32660;DHT22;19064;47.912;12.308;2022-07-06T05:32:47;17.70;99.90
32660;DHT22;19064;47.912;12.308;2022-07-06T05:35:14;17.80;99.90
32660;DHT22;19064;47.912;12.308;2022-07-06T05:37:43;17.80;99.90
32660;DHT22;19064;47.912;12.308;2022-07-06T05:40:11;18.00;99.90
32660;DHT22;19064;47.912;12.308;2022-07-06T05:42:37;18.10;99.90
32660;DHT22;19064;47.912;12.308;2022-07-06T05:45:05;18.10;99.90
32660;DHT22;19064;47.912;12.308;2022-07-06T05:47:32;18.00;99.90
32660;DHT22;19064;47.912;12.308;2022-07-06T05:50:16;18.10;99.90
32660;DHT22;19064;47.912;12.308;2022-07-06T05:52:55;18.10;99.90
32660;DHT22;19064;47.912;12.308;2022-07-06T05:55:22;18.10;99.90
32660;DHT22;19064;47.912;12.308;2022-07-06T05:57:49;18.20;99.90
32660;DHT22;19064;47.912;12.308;2022-07-06T06:00:16;18.30;99.90
32660;DHT22;19064;47.912;12.308;2022-07-06T06:02:43;18.30;99.90
32660;DHT22;19064;47.912;12.308;2022-07-06T06:05:13;18.30;99.90
32660;DHT22;19064;47.912;12.308;2022-07-06T06:07:41;18.20;99.90
32660;DHT22;19064;47.912;12.308;2022-07-06T06:10:12;18.10;99.90
32660;DHT22;19064;47.912;12.308;2022-07-06T06:12:41;18.30;99.90
32660;DHT22;19064;47.912;12.308;2022-07-06T06:15:09;18.60;99.90
32660;DHT22;19064;47.912;12.308;2022-07-06T06:17:36;18.70;99.90
32660;DHT22;19064;47.912;12.308;2022-07-06T06:20:04;18.50;99.90
32660;DHT22;19064;47.912;12.308;2022-07-06T06:22:43;18.80;99.90
32660;DHT22;19064;47.912;12.308;2022-07-06T06:25:12;18.80;99.90
32660;DHT22;19064;47.912;12.308;2022-07-06T06:27:39;18.90;99.90
32660;DHT22;19064;47.912;12.308;2022-07-06T06:30:06;19.00;99.90
32660;DHT22;19064;47.912;12.308;2022-07-06T06:32:33;19.00;99.90
32660;DHT22;19064;47.912;12.308;2022-07-06T06:35:00;19.10;99.90
32660;DHT22;19064;47.912;12.308;2022-07-06T06:37:27;19.20;99.90
32660;DHT22;19064;47.912;12.308;2022-07-06T06:39:54;19.20;99.90
32660;DHT22;19064;47.912;12.308;2022-07-06T06:42:22;19.40;99.90
32660;DHT22;19064;47.912;12.308;2022-07-06T06:44:49;19.40;99.90
32660;DHT22;19064;47.912;12.308;2022-07-06T06:47:17;19.10;99.90
32660;DHT22;19064;47.912;12.308;2022-07-06T06:49:47;19.20;99.90
32660;DHT22;19064;47.912;12.308;2022-07-06T06:52:15;19.50;99.90
32660;DHT22;19064;47.912;12.308;2022-07-06T06:54:43;19.90;99.90
32660;DHT22;19064;47.912;12.308;2022-07-06T06:57:12;20.10;99.90
32660;DHT22;19064;47.912;12.308;2022-07-06T06:59:41;20.30;99.90
32660;DHT22;19064;47.912;12.308;2022-07-06T07:02:09;20.00;99.90
32660;DHT22;19064;47.912;12.308;2022-07-06T07:04:37;20.20;99.90
32660;DHT22;19064;47.912;12.308;2022-07-06T07:07:04;20.50;99.90
32660;DHT22;19064;47.912;12.308;2022-07-06T07:09:31;20.50;99.90
32660;DHT22;19064;47.912;12.308;2022-07-06T07:11:58;20.80;99.90
32660;DHT22;19064;47.912;12.308;2022-07-06T07:14:24;21.00;99.90
32660;DHT22;19064;47.912;12.308;2022-07-06T07:16:54;20.60;99.90
32660;DHT22;19064;47.912;12.308;2022-07-06T07:19:21;20.50;99.90
32660;DHT22;19064;47.912;12.308;2022-07-06T07:21:49;20.40;99.90
32660;DHT22;19064;47.912;12.308;2022-07-06T07:24:16;20.50;99.90
32660;DHT22;19064;47.912;12.308;2022-07-06T07:26:43;20.50;99.90
32660;DHT22;19064;47.912;12.308;2022-07-06T07:29:11;20.70;99.90
32660;DHT22;19064;47.912;12.308;2022-07-06T07:31:39;20.80;99.90
32660;DHT22;19064;47.912;12.308;2022-07-06T07:34:08;20.90;99.90
32660;DHT22;19064;47.912;12.308;2022-07-06T07:36:35;21.00;99.90
32660;DHT22;19064;47.912;12.308;2022-07-06T07:39:02;21.10;99.90
32660;DHT22;19064;47.912;12.308;2022-07-06T07:41:29;21.00;99.90
32660;DHT22;19064;47.912;12.308;2022-07-06T07:43:56;21.10;99.90
32660;DHT22;19064;47.912;12.308;2022-07-06T07:46:23;21.20;99.90
32660;DHT22;19064;47.912;12.308;2022-07-06T07:48:49;21.20;99.90
32660;DHT22;19064;47.912;12.308;2022-07-06T07:51:17;21.10;99.90
32660;DHT22;19064;47.912;12.308;2022-07-06T07:53:45;20.90;99.90
32660;DHT22;19064;47.912;12.308;2022-07-06T07:56:14;21.20;99.90
32660;DHT22;19064;47.912;12.308;2022-07-06T07:58:42;21.20;99.90
32660;DHT22;19064;47.912;12.308;2022-07-06T08:01:10;21.10;99.90
32660;DHT22;19064;47.912;12.308;2022-07-06T08:03:38;20.80;99.90
32660;DHT22;19064;47.912;12.308;2022-07-06T08:06:06;21.00;99.90
32660;DHT22;19064;47.912;12.308;2022-07-06T08:08:36;21.10;99.90
32660;DHT22;19064;47.912;12.308;2022-07-06T08:11:04;21.30;99.90
32660;DHT22;19064;47.912;12.308;2022-07-06T08:13:32;21.50;99.90
32660;DHT22;19064;47.912;12.308;2022-07-06T08:16:01;21.60;99.90
32660;DHT22;19064;47.912;12.308;2022-07-06T08:18:27;21.70;99.90
32660;DHT22;19064;47.912;12.308;2022-07-06T08:20:58;21.70;99.90
32660;DHT22;19064;47.912;12.308;2022-07-06T08:23:25;21.90;99.90
32660;DHT22;19064;47.912;12.308;2022-07-06T08:25:53;21.90;99.90
32660;DHT22;19064;47.912;12.308;2022-07-06T08:28:20;22.00;99.90
32660;DHT22;19064;47.912;12.308;2022-07-06T08:30:47;21.90;99.90
32660;DHT22;19064;47.912;12.308;2022-07-06T08:33:14;21.80;99.90
32660;DHT22;19064;47.912;12.308;2022-07-06T08:35:40;21.70;99.90
32660;DHT22;19064;47.912;12.308;2022-07-06T08:38:07;21.80;99.90
32660;DHT22;19064;47.912;12.308;2022-07-06T08:40:34;21.70;99.90
32660;DHT22;19064;47.912;12.308;2022-07-06T08:43:03;21.90;99.90
32660;DHT22;19064;47.912;12.308;2022-07-06T08:45:30;22.00;99.90
32660;DHT22;19064;47.912;12.308;2022-07-06T08:48:04;22.10;99.90
32660;DHT22;19064;47.912;12.308;2022-07-06T08:50:32;21.90;99.90
32660;DHT22;19064;47.912;12.308;2022-07-06T08:52:59;22.00;99.90
32660;DHT22;19064;47.912;12.308;2022-07-06T08:55:27;22.30;99.90
32660;DHT22;19064;47.912;12.308;2022-07-06T08:57:55;22.40;99.90
32660;DHT22;19064;47.912;12.308;2022-07-06T09:00:24;22.50;99.90
32660;DHT22;19064;47.912;12.308;2022-07-06T09:02:51;22.30;99.90
32660;DHT22;19064;47.912;12.308;2022-07-06T09:05:22;22.30;99.90
32660;DHT22;19064;47.912;12.308;2022-07-06T09:07:50;22.20;99.90
32660;DHT22;19064;47.912;12.308;2022-07-06T09:10:18;22.10;99.90
32660;DHT22;19064;47.912;12.308;2022-07-06T09:12:45;22.20;99.90
32660;DHT22;19064;47.912;12.308;2022-07-06T09:15:12;22.30;99.90
32660;DHT22;19064;47.912;12.308;2022-07-06T09:17:42;22.20;99.90
32660;DHT22;19064;47.912;12.308;2022-07-06T09:20:10;22.20;99.90
32660;DHT22;19064;47.912;12.308;2022-07-06T09:22:38;22.50;99.90
32660;DHT22;19064;47.912;12.308;2022-07-06T09:25:07;22.40;99.90
32660;DHT22;19064;47.912;12.308;2022-07-06T09:27:37;22.50;99.90
32660;DHT22;19064;47.912;12.308;2022-07-06T09:30:06;22.50;99.90
32660;DHT22;19064;47.912;12.308;2022-07-06T09:32:38;22.70;99.90
32660;DHT22;19064;47.912;12.308;2022-07-06T09:35:07;22.60;99.90
32660;DHT22;19064;47.912;12.308;2022-07-06T09:37:34;22.60;99.90
32660;DHT22;19064;47.912;12.308;2022-07-06T09:40:03;22.80;99.90
32660;DHT22;19064;47.912;12.308;2022-07-06T09:42:41;22.90;99.90
32660;DHT22;19064;47.912;12.308;2022-07-06T09:45:09;23.20;99.90
32660;DHT22;19064;47.912;12.308;2022-07-06T09:47:36;22.80;99.90
32660;DHT22;19064;47.912;12.308;2022-07-06T09:50:06;22.70;99.90
32660;DHT22;19064;47.912;12.308;2022-07-06T09:52:34;22.90;99.90
32660;DHT22;19064;47.912;12.308;2022-07-06T09:55:01;23.20;99.90
32660;DHT22;19064;47.912;12.308;2022-07-06T09:57:32;23.20;99.90
32660;DHT22;19064;47.912;12.308;2022-07-06T09:59:59;23.00;99.90
32660;DHT22;19064;47.912;12.308;2022-07-06T10:02:26;23.00;99.90
32660;DHT22;19064;47.912;12.308;2022-07-06T10:04:55;23.00;99.90
32660;DHT22;19064;47.912;12.308;2022-07-06T10:07:24;23.30;99.90
32660;DHT22;19064;47.912;12.308;2022-07-06T10:09:51;23.40;99.90
32660;DHT22;19064;47.912;12.308;2022-07-06T10:12:19;23.40;99.90
32660;DHT22;19064;47.912;12.308;2022-07-06T10:14:46;23.60;99.90
32660;DHT22;19064;47.912;12.308;2022-07-06T10:17:13;23.60;99.90
32660;DHT22;19064;47.912;12.308;2022-07-06T10:19:41;23.60;99.90
32660;DHT22;19064;47.912;12.308;2022-07-06T10:22:08;23.80;99.90
32660;DHT22;19064;47.912;12.308;2022-07-06T10:24:36;24.00;99.90
32660;DHT22;19064;47.912;12.308;2022-07-06T10:27:09;24.20;99.90
32660;DHT22;19064;47.912;12.308;2022-07-06T10:29:37;24.30;99.90
32660;DHT22;19064;47.912;12.308;2022-07-06T10:32:04;24.50;99.90
32660;DHT22;19064;47.912;12.308;2022-07-06T10:34:33;24.70;99.90
32660;DHT22;19064;47.912;12.308;2022-07-06T10:37:02;24.60;99.90
32660;DHT22;19064;47.912;12.308;2022-07-06T10:39:32;24.30;99.90
32660;DHT22;19064;47.912;12.308;2022-07-06T10:42:45;24.30;99.90
32660;DHT22;19064;47.912;12.308;2022-07-06T10:45:19;24.40;99.90
32660;DHT22;19064;47.912;12.308;2022-07-06T10:47:47;24.50;99.90
32660;DHT22;19064;47.912;12.308;2022-07-06T10:50:16;24.60;99.90
32660;DHT22;19064;47.912;12.308;2022-07-06T10:52:48;24.60;99.90
32660;DHT22;19064;47.912;12.308;2022-07-06T10:55:28;24.90;99.90
32660;DHT22;19064;47.912;12.308;2022-07-06T10:57:57;24.90;99.90
32660;DHT22;19064;47.912;12.308;2022-07-06T11:00:24;25.20;99.90
32660;DHT22;19064;47.912;12.308;2022-07-06T11:02:51;25.00;99.90
32660;DHT22;19064;47.912;12.308;2022-07-06T11:05:40;24.80;99.90
32660;DHT22;19064;47.912;12.308;2022-07-06T11:08:09;24.80;99.80
32660;DHT22;19064;47.912;12.308;2022-07-06T11:10:46;25.00;99.90
32660;DHT22;19064;47.912;12.308;2022-07-06T11:13:26;24.80;99.40
32660;DHT22;19064;47.912;12.308;2022-07-06T11:16:00;25.10;99.90
32660;DHT22;19064;47.912;12.308;2022-07-06T11:18:38;25.20;99.90
32660;DHT22;19064;47.912;12.308;2022-07-06T11:21:16;25.20;99.90
32660;DHT22;19064;47.912;12.308;2022-07-06T11:23:43;25.30;98.20
32660;DHT22;19064;47.912;12.308;2022-07-06T11:26:12;25.40;99.30
32660;DHT22;19064;47.912;12.308;2022-07-06T11:28:40;25.20;99.40
32660;DHT22;19064;47.912;12.308;2022-07-06T11:31:10;25.00;99.90
32660;DHT22;19064;47.912;12.308;2022-07-06T11:33:37;24.90;99.90
32660;DHT22;19064;47.912;12.308;2022-07-06T11:36:12;24.90;99.70
32660;DHT22;19064;47.912;12.308;2022-07-06T11:38:39;24.90;98.60
32660;DHT22;19064;47.912;12.308;2022-07-06T11:41:06;25.00;99.00
32660;DHT22;19064;47.912;12.308;2022-07-06T11:43:33;25.10;99.90
32660;DHT22;19064;47.912;12.308;2022-07-06T11:46:01;25.00;96.90
32660;DHT22;19064;47.912;12.308;2022-07-06T11:48:28;24.90;97.90
32660;DHT22;19064;47.912;12.308;2022-07-06T11:50:59;25.00;98.50
32660;DHT22;19064;47.912;12.308;2022-07-06T11:53:26;25.10;98.50
32660;DHT22;19064;47.912;12.308;2022-07-06T11:55:53;25.00;96.90
32660;DHT22;19064;47.912;12.308;2022-07-06T11:58:21;24.90;97.60
32660;DHT22;19064;47.912;12.308;2022-07-06T12:01:06;24.90;97.40
32660;DHT22;19064;47.912;12.308;2022-07-06T12:03:33;25.10;97.10
32660;DHT22;19064;47.912;12.308;2022-07-06T12:06:01;25.20;96.40
32660;DHT22;19064;47.912;12.308;2022-07-06T12:08:28;25.40;96.70
32660;DHT22;19064;47.912;12.308;2022-07-06T12:10:55;25.20;97.30
32660;DHT22;19064;47.912;12.308;2022-07-06T12:13:22;24.80;97.90
32660;DHT22;19064;47.912;12.308;2022-07-06T12:15:49;24.70;99.30
32660;DHT22;19064;47.912;12.308;2022-07-06T12:18:17;24.80;99.20
32660;DHT22;19064;47.912;12.308;2022-07-06T12:20:44;24.80;97.30
32660;DHT22;19064;47.912;12.308;2022-07-06T12:23:11;24.70;97.10
32660;DHT22;19064;47.912;12.308;2022-07-06T12:25:38;24.60;97.80
32660;DHT22;19064;47.912;12.308;2022-07-06T12:28:05;24.70;98.00
32660;DHT22;19064;47.912;12.308;2022-07-06T12:30:32;24.80;97.80
32660;DHT22;19064;47.912;12.308;2022-07-06T12:33:12;24.80;99.90
32660;DHT22;19064;47.912;12.308;2022-07-06T12:35:41;25.00;97.60
32660;DHT22;19064;47.912;12.308;2022-07-06T12:38:08;25.00;97.00
32660;DHT22;19064;47.912;12.308;2022-07-06T12:40:36;25.20;96.00
32660;DHT22;19064;47.912;12.308;2022-07-06T12:43:03;25.10;96.50
32660;DHT22;19064;47.912;12.308;2022-07-06T12:45:32;25.10;98.40
32660;DHT22;19064;47.912;12.308;2022-07-06T12:47:59;25.20;96.70
32660;DHT22;19064;47.912;12.308;2022-07-06T12:50:34;25.00;97.20
32660;DHT22;19064;47.912;12.308;2022-07-06T12:53:04;24.90;96.90
32660;DHT22;19064;47.912;12.308;2022-07-06T12:55:31;24.80;94.70
32660;DHT22;19064;47.912;12.308;2022-07-06T12:57:58;24.80;94.90
32660;DHT22;19064;47.912;12.308;2022-07-06T13:00:25;24.80;94.30
32660;DHT22;19064;47.912;12.308;2022-07-06T13:02:53;24.90;95.30
32660;DHT22;19064;47.912;12.308;2022-07-06T13:05:25;24.90;94.50
32660;DHT22;19064;47.912;12.308;2022-07-06T13:07:54;24.80;95.70
32660;DHT22;19064;47.912;12.308;2022-07-06T13:10:24;24.70;96.60
32660;DHT22;19064;47.912;12.308;2022-07-06T13:12:51;24.70;95.90
32660;DHT22;19064;47.912;12.308;2022-07-06T13:15:18;24.60;96.00
32660;DHT22;19064;47.912;12.308;2022-07-06T13:17:45;24.30;95.60
32660;DHT22;19064;47.912;12.308;2022-07-06T13:20:13;24.10;96.60
32660;DHT22;19064;47.912;12.308;2022-07-06T13:22:42;24.10;94.50
32660;DHT22;19064;47.912;12.308;2022-07-06T13:25:09;24.20;96.20
32660;DHT22;19064;47.912;12.308;2022-07-06T13:27:37;24.50;97.00
32660;DHT22;19064;47.912;12.308;2022-07-06T13:30:04;24.80;95.40
32660;DHT22;19064;47.912;12.308;2022-07-06T13:32:31;25.10;95.10
32660;DHT22;19064;47.912;12.308;2022-07-06T13:34:58;25.00;94.30
32660;DHT22;19064;47.912;12.308;2022-07-06T13:37:25;25.20;94.10
32660;DHT22;19064;47.912;12.308;2022-07-06T13:39:51;25.40;96.60
32660;DHT22;19064;47.912;12.308;2022-07-06T13:42:18;25.30;94.20
32660;DHT22;19064;47.912;12.308;2022-07-06T13:44:46;25.00;93.70
32660;DHT22;19064;47.912;12.308;2022-07-06T13:47:13;25.00;93.80
32660;DHT22;19064;47.912;12.308;2022-07-06T13:49:40;25.20;93.80
32660;DHT22;19064;47.912;12.308;2022-07-06T13:52:08;25.30;94.20
32660;DHT22;19064;47.912;12.308;2022-07-06T13:54:35;25.00;92.80
32660;DHT22;19064;47.912;12.308;2022-07-06T13:57:02;24.80;93.10
32660;DHT22;19064;47.912;12.308;2022-07-06T13:59:30;24.60;93.90
32660;DHT22;19064;47.912;12.308;2022-07-06T14:01:58;24.40;95.60
32660;DHT22;19064;47.912;12.308;2022-07-06T14:04:25;24.20;94.50
32660;DHT22;19064;47.912;12.308;2022-07-06T14:06:52;24.30;94.90
32660;DHT22;19064;47.912;12.308;2022-07-06T14:09:19;24.40;94.30
32660;DHT22;19064;47.912;12.308;2022-07-06T14:11:46;24.30;94.40
32660;DHT22;19064;47.912;12.308;2022-07-06T14:14:13;24.30;94.30
32660;DHT22;19064;47.912;12.308;2022-07-06T14:16:40;24.30;94.30
32660;DHT22;19064;47.912;12.308;2022-07-06T14:19:08;24.30;94.00
32660;DHT22;19064;47.912;12.308;2022-07-06T14:21:35;24.30;95.00
32660;DHT22;19064;47.912;12.308;2022-07-06T14:24:02;24.40;95.50
32660;DHT22;19064;47.912;12.308;2022-07-06T14:26:29;24.20;94.40
32660;DHT22;19064;47.912;12.308;2022-07-06T14:28:55;24.00;93.10
32660;DHT22;19064;47.912;12.308;2022-07-06T14:31:22;23.80;92.90
32660;DHT22;19064;47.912;12.308;2022-07-06T14:33:49;23.80;93.60
32660;DHT22;19064;47.912;12.308;2022-07-06T14:36:18;23.80;93.60
32660;DHT22;19064;47.912;12.308;2022-07-06T14:38:44;23.90;92.80
32660;DHT22;19064;47.912;12.308;2022-07-06T14:41:11;24.20;93.40
32660;DHT22;19064;47.912;12.308;2022-07-06T14:43:38;24.40;93.70
32660;DHT22;19064;47.912;12.308;2022-07-06T14:46:05;24.60;92.00
32660;DHT22;19064;47.912;12.308;2022-07-06T14:48:32;24.90;94.10
32660;DHT22;19064;47.912;12.308;2022-07-06T14:50:59;24.80;92.10
32660;DHT22;19064;47.912;12.308;2022-07-06T14:53:27;24.90;92.60
32660;DHT22;19064;47.912;12.308;2022-07-06T14:55:54;24.90;93.00
32660;DHT22;19064;47.912;12.308;2022-07-06T14:58:21;24.90;94.90
32660;DHT22;19064;47.912;12.308;2022-07-06T15:00:48;25.00;93.20
32660;DHT22;19064;47.912;12.308;2022-07-06T15:03:15;24.90;93.80
32660;DHT22;19064;47.912;12.308;2022-07-06T15:05:42;24.80;92.80
32660;DHT22;19064;47.912;12.308;2022-07-06T15:08:11;24.70;93.10
32660;DHT22;19064;47.912;12.308;2022-07-06T15:10:41;24.80;93.10
32660;DHT22;19064;47.912;12.308;2022-07-06T15:13:08;24.70;93.90
32660;DHT22;19064;47.912;12.308;2022-07-06T15:15:35;24.70;92.30
32660;DHT22;19064;47.912;12.308;2022-07-06T15:18:03;24.80;94.10
32660;DHT22;19064;47.912;12.308;2022-07-06T15:20:30;24.80;93.90